Mars — XPC8385 — position and weather

sailwx.info

Track history (hours):
 
Tides and Currents Weather Stations Pressure Air Temp Water Temp Dewpoint Dewpoint Depression Visibility Wind Speed Wind Dir Waves Ship Positions

Mars

Last reported at 2017-Sep-21 11:53 UTC. Time now 2017-Sep-23 23:35 UTC.
Position N 55°19' E 014°50'.

Length 14 m; draft 1.7 m.

Type: Pilot. MMSI: 219001058.

Date/timePositionNaut miles runAvg speedWind from/ knotsBaromVisibWave heightAir tempDewpointWater temp
2017-Sep-21 11:53N 55°19' E 014°50'2 0.2
2017-Sep-21 00:07N 55°17' E 014°48'317.8
2017-Sep-20 23:58N 55°19' E 014°47'1 0.2
2017-Sep-20 21:05N 55°19' E 014°46'1 0.4
2017-Sep-20 17:01N 55°19' E 014°48'2 2.7
2017-Sep-20 16:11N 55°17' E 014°48'312.4
2017-Sep-20 15:59N 55°18' E 014°52'2 0.2
2017-Sep-20 05:07N 55°17' E 014°48'3 3.8
2017-Sep-20 04:17N 55°19' E 014°53'1 0.0
2017-Sep-18 15:09N 55°19' E 014°52'4 0.1
2017-Sep-17 01:58N 55°20' E 014°45'3 0.1
2017-Sep-16 04:11N 55°18' E 014°49'1 4.1
2017-Sep-16 04:00N 55°18' E 014°50'2 0.2
2017-Sep-15 19:22N 55°16' E 014°49'1 1.4
2017-Sep-15 18:54N 55°16' E 014°50'2 4.5
2017-Sep-15 18:27N 55°18' E 014°53'1 0.1
2017-Sep-15 10:01N 55°19' E 014°52'0 9.0
2017-Sep-15 09:58N 55°19' E 014°52'1 0.1
2017-Sep-14 08:14N 55°18' E 014°50'2 0.1
2017-Sep-13 08:02N 55°17' E 014°48'119.8
2017-Sep-13 08:00N 55°18' E 014°47'1 0.1
2017-Sep-13 02:02N 55°17' E 014°48'0 7.4
2017-Sep-13 02:00N 55°17' E 014°48'0 0.1
2017-Sep-12 23:15N 55°17' E 014°48'416.8
2017-Sep-12 23:00N 55°21' E 014°46'4 0.8
2017-Sep-12 18:08N 55°17' E 014°48'217.0
2017-Sep-12 18:00N 55°19' E 014°48'2 0.2
2017-Sep-12 05:32N 55°17' E 014°48'0 5.6
2017-Sep-12 05:31N 55°17' E 014°48'  
Track history (hours):
 
Tides and Currents Weather Stations Pressure Air Temp Water Temp Dewpoint Dewpoint Depression Visibility Wind Speed Wind Dir Waves Ship Positions

Mars

Last reported at 2017-Sep-21 11:53 UTC. Time now 2017-Sep-23 23:35 UTC.
Position N 55°19' E 014°50'.

Length 14 m; draft 1.7 m.

Type: Pilot. MMSI: 219001058.

Date/timePositionNaut miles runAvg speedWind from/ knotsBaromVisibWave heightAir tempDewpointWater temp
2017-Sep-21 11:53N 55°19' E 014°50'2 0.2
2017-Sep-21 00:07N 55°17' E 014°48'317.8
2017-Sep-20 23:58N 55°19' E 014°47'1 0.2
2017-Sep-20 21:05N 55°19' E 014°46'1 0.4
2017-Sep-20 17:01N 55°19' E 014°48'2 2.7
2017-Sep-20 16:11N 55°17' E 014°48'312.4
2017-Sep-20 15:59N 55°18' E 014°52'2 0.2
2017-Sep-20 05:07N 55°17' E 014°48'3 3.8
2017-Sep-20 04:17N 55°19' E 014°53'1 0.0
2017-Sep-18 15:09N 55°19' E 014°52'4 0.1
2017-Sep-17 01:58N 55°20' E 014°45'3 0.1
2017-Sep-16 04:11N 55°18' E 014°49'1 4.1
2017-Sep-16 04:00N 55°18' E 014°50'2 0.2
2017-Sep-15 19:22N 55°16' E 014°49'1 1.4
2017-Sep-15 18:54N 55°16' E 014°50'2 4.5
2017-Sep-15 18:27N 55°18' E 014°53'1 0.1
2017-Sep-15 10:01N 55°19' E 014°52'0 9.0
2017-Sep-15 09:58N 55°19' E 014°52'1 0.1
2017-Sep-14 08:14N 55°18' E 014°50'2 0.1
2017-Sep-13 08:02N 55°17' E 014°48'119.8
2017-Sep-13 08:00N 55°18' E 014°47'1 0.1
2017-Sep-13 02:02N 55°17' E 014°48'0 7.4
2017-Sep-13 02:00N 55°17' E 014°48'0 0.1
2017-Sep-12 23:15N 55°17' E 014°48'416.8
2017-Sep-12 23:00N 55°21' E 014°46'4 0.8
2017-Sep-12 18:08N 55°17' E 014°48'217.0
2017-Sep-12 18:00N 55°19' E 014°48'2 0.2
2017-Sep-12 05:32N 55°17' E 014°48'0 5.6
2017-Sep-12 05:31N 55°17' E 014°48'  

Dump ship's entire track history